sensor_id;sensor_type;location;lat;lon;timestamp;P1;durP1;ratioP1;P2;durP2;ratioP2
5549;SDS011;2798;42.716;23.256;2023-02-18T00:00:55;35.83;;;18.13;;
5549;SDS011;2798;42.716;23.256;2023-02-18T00:03:22;28.83;;;16.50;;
5549;SDS011;2798;42.716;23.256;2023-02-18T00:05:47;31.80;;;15.13;;
5549;SDS011;2798;42.716;23.256;2023-02-18T00:08:13;27.30;;;15.03;;
5549;SDS011;2798;42.716;23.256;2023-02-18T00:10:39;24.47;;;13.90;;
5549;SDS011;2798;42.716;23.256;2023-02-18T00:13:05;22.37;;;12.87;;
5549;SDS011;2798;42.716;23.256;2023-02-18T00:15:30;22.90;;;12.70;;
5549;SDS011;2798;42.716;23.256;2023-02-18T00:17:55;22.60;;;12.67;;
5549;SDS011;2798;42.716;23.256;2023-02-18T00:20:20;29.13;;;12.60;;
5549;SDS011;2798;42.716;23.256;2023-02-18T00:22:45;31.20;;;12.63;;
5549;SDS011;2798;42.716;23.256;2023-02-18T00:25:11;22.67;;;12.10;;
5549;SDS011;2798;42.716;23.256;2023-02-18T00:27:36;22.20;;;13.23;;
5549;SDS011;2798;42.716;23.256;2023-02-18T00:30:01;20.80;;;13.27;;
5549;SDS011;2798;42.716;23.256;2023-02-18T00:32:28;24.83;;;13.70;;
5549;SDS011;2798;42.716;23.256;2023-02-18T00:34:53;23.70;;;13.30;;
5549;SDS011;2798;42.716;23.256;2023-02-18T00:37:18;24.10;;;13.07;;
5549;SDS011;2798;42.716;23.256;2023-02-18T00:39:44;24.33;;;13.03;;
5549;SDS011;2798;42.716;23.256;2023-02-18T00:42:09;26.30;;;12.73;;
5549;SDS011;2798;42.716;23.256;2023-02-18T00:44:34;26.07;;;12.43;;
5549;SDS011;2798;42.716;23.256;2023-02-18T00:46:59;23.07;;;12.20;;
5549;SDS011;2798;42.716;23.256;2023-02-18T00:49:25;21.20;;;12.60;;
5549;SDS011;2798;42.716;23.256;2023-02-18T00:51:50;22.33;;;11.43;;
5549;SDS011;2798;42.716;23.256;2023-02-18T00:54:15;22.80;;;10.40;;
5549;SDS011;2798;42.716;23.256;2023-02-18T00:56:40;19.60;;;10.50;;
5549;SDS011;2798;42.716;23.256;2023-02-18T00:59:06;22.53;;;10.47;;
5549;SDS011;2798;42.716;23.256;2023-02-18T01:01:31;24.90;;;10.90;;
5549;SDS011;2798;42.716;23.256;2023-02-18T01:03:56;22.90;;;11.83;;
5549;SDS011;2798;42.716;23.256;2023-02-18T01:06:22;27.40;;;11.40;;
5549;SDS011;2798;42.716;23.256;2023-02-18T01:08:47;22.00;;;11.33;;
5549;SDS011;2798;42.716;23.256;2023-02-18T01:11:12;20.20;;;11.40;;
5549;SDS011;2798;42.716;23.256;2023-02-18T01:13:38;23.60;;;11.50;;
5549;SDS011;2798;42.716;23.256;2023-02-18T01:16:04;21.80;;;10.27;;
5549;SDS011;2798;42.716;23.256;2023-02-18T01:18:29;19.03;;;11.20;;
5549;SDS011;2798;42.716;23.256;2023-02-18T01:20:55;23.10;;;10.63;;
5549;SDS011;2798;42.716;23.256;2023-02-18T01:23:20;21.93;;;9.77;;
5549;SDS011;2798;42.716;23.256;2023-02-18T01:25:46;23.07;;;11.37;;
5549;SDS011;2798;42.716;23.256;2023-02-18T01:28:12;20.57;;;10.27;;
5549;SDS011;2798;42.716;23.256;2023-02-18T01:30:37;18.17;;;9.60;;
5549;SDS011;2798;42.716;23.256;2023-02-18T01:33:03;16.43;;;9.37;;
5549;SDS011;2798;42.716;23.256;2023-02-18T01:35:28;27.53;;;10.70;;
5549;SDS011;2798;42.716;23.256;2023-02-18T01:37:53;20.27;;;9.00;;
5549;SDS011;2798;42.716;23.256;2023-02-18T01:40:20;18.17;;;8.93;;
5549;SDS011;2798;42.716;23.256;2023-02-18T01:42:48;16.50;;;8.60;;
5549;SDS011;2798;42.716;23.256;2023-02-18T01:50:29;19.00;;;9.30;;
5549;SDS011;2798;42.716;23.256;2023-02-18T01:52:54;14.77;;;8.90;;
5549;SDS011;2798;42.716;23.256;2023-02-18T01:55:20;14.50;;;9.00;;
5549;SDS011;2798;42.716;23.256;2023-02-18T01:57:45;18.17;;;9.40;;
5549;SDS011;2798;42.716;23.256;2023-02-18T02:00:12;19.03;;;9.37;;
5549;SDS011;2798;42.716;23.256;2023-02-18T02:02:39;13.87;;;8.30;;
5549;SDS011;2798;42.716;23.256;2023-02-18T02:05:04;22.33;;;9.60;;
5549;SDS011;2798;42.716;23.256;2023-02-18T02:07:30;16.87;;;9.07;;
5549;SDS011;2798;42.716;23.256;2023-02-18T02:09:56;21.13;;;10.10;;
5549;SDS011;2798;42.716;23.256;2023-02-18T02:32:58;20.70;;;10.37;;
5549;SDS011;2798;42.716;23.256;2023-02-18T02:35:43;21.40;;;11.77;;
5549;SDS011;2798;42.716;23.256;2023-02-18T02:38:15;22.30;;;10.60;;
5549;SDS011;2798;42.716;23.256;2023-02-18T02:41:01;18.60;;;11.20;;
5549;SDS011;2798;42.716;23.256;2023-02-18T02:51:08;16.83;;;10.20;;
5549;SDS011;2798;42.716;23.256;2023-02-18T02:53:34;20.70;;;10.83;;
5549;SDS011;2798;42.716;23.256;2023-02-18T02:56:00;20.70;;;10.30;;
5549;SDS011;2798;42.716;23.256;2023-02-18T02:58:25;21.00;;;11.17;;
5549;SDS011;2798;42.716;23.256;2023-02-18T03:03:20;16.53;;;9.77;;
5549;SDS011;2798;42.716;23.256;2023-02-18T03:06:22;15.90;;;9.50;;
5549;SDS011;2798;42.716;23.256;2023-02-18T03:11:11;19.00;;;10.10;;
5549;SDS011;2798;42.716;23.256;2023-02-18T03:18:40;16.10;;;8.80;;
5549;SDS011;2798;42.716;23.256;2023-02-18T03:23:41;15.33;;;8.80;;
5549;SDS011;2798;42.716;23.256;2023-02-18T03:26:09;20.07;;;10.43;;
5549;SDS011;2798;42.716;23.256;2023-02-18T03:28:35;20.80;;;11.20;;
5549;SDS011;2798;42.716;23.256;2023-02-18T03:31:11;20.37;;;12.40;;
5549;SDS011;2798;42.716;23.256;2023-02-18T03:33:47;22.97;;;12.33;;
5549;SDS011;2798;42.716;23.256;2023-02-18T03:36:13;28.77;;;14.47;;
5549;SDS011;2798;42.716;23.256;2023-02-18T03:38:45;30.00;;;14.63;;
5549;SDS011;2798;42.716;23.256;2023-02-18T03:41:11;27.70;;;14.17;;
5549;SDS011;2798;42.716;23.256;2023-02-18T03:43:36;25.07;;;13.80;;
5549;SDS011;2798;42.716;23.256;2023-02-18T03:46:01;24.77;;;13.27;;
5549;SDS011;2798;42.716;23.256;2023-02-18T03:48:27;28.07;;;14.60;;
5549;SDS011;2798;42.716;23.256;2023-02-18T03:50:52;26.53;;;12.50;;
5549;SDS011;2798;42.716;23.256;2023-02-18T03:53:18;25.20;;;12.53;;
5549;SDS011;2798;42.716;23.256;2023-02-18T03:55:43;23.47;;;13.23;;
5549;SDS011;2798;42.716;23.256;2023-02-18T03:58:08;24.63;;;12.10;;
5549;SDS011;2798;42.716;23.256;2023-02-18T04:00:33;21.73;;;11.50;;
5549;SDS011;2798;42.716;23.256;2023-02-18T04:02:59;25.60;;;11.53;;
5549;SDS011;2798;42.716;23.256;2023-02-18T04:05:24;23.80;;;12.00;;
5549;SDS011;2798;42.716;23.256;2023-02-18T04:07:49;20.57;;;11.83;;
5549;SDS011;2798;42.716;23.256;2023-02-18T04:10:14;22.53;;;10.27;;
5549;SDS011;2798;42.716;23.256;2023-02-18T04:12:40;17.00;;;10.00;;
5549;SDS011;2798;42.716;23.256;2023-02-18T04:15:05;21.70;;;10.00;;
5549;SDS011;2798;42.716;23.256;2023-02-18T04:17:31;17.90;;;10.47;;
5549;SDS011;2798;42.716;23.256;2023-02-18T04:19:56;20.90;;;9.60;;
5549;SDS011;2798;42.716;23.256;2023-02-18T04:22:22;18.63;;;8.90;;
5549;SDS011;2798;42.716;23.256;2023-02-18T04:24:47;16.13;;;8.33;;
5549;SDS011;2798;42.716;23.256;2023-02-18T04:27:12;15.10;;;9.00;;
5549;SDS011;2798;42.716;23.256;2023-02-18T04:29:37;17.23;;;8.87;;
5549;SDS011;2798;42.716;23.256;2023-02-18T04:32:03;16.63;;;7.90;;
5549;SDS011;2798;42.716;23.256;2023-02-18T04:34:28;18.60;;;8.37;;
5549;SDS011;2798;42.716;23.256;2023-02-18T04:36:53;14.60;;;7.20;;
5549;SDS011;2798;42.716;23.256;2023-02-18T04:39:20;17.10;;;8.30;;
5549;SDS011;2798;42.716;23.256;2023-02-18T04:41:45;14.60;;;7.43;;
5549;SDS011;2798;42.716;23.256;2023-02-18T04:44:10;15.27;;;7.40;;
5549;SDS011;2798;42.716;23.256;2023-02-18T04:46:37;17.40;;;8.77;;
5549;SDS011;2798;42.716;23.256;2023-02-18T04:49:02;21.20;;;9.70;;
5549;SDS011;2798;42.716;23.256;2023-02-18T04:51:27;29.77;;;15.30;;
5549;SDS011;2798;42.716;23.256;2023-02-18T04:53:53;32.00;;;16.23;;
5549;SDS011;2798;42.716;23.256;2023-02-18T04:56:18;27.20;;;14.63;;
5549;SDS011;2798;42.716;23.256;2023-02-18T04:58:44;31.33;;;12.90;;
5549;SDS011;2798;42.716;23.256;2023-02-18T05:01:09;23.53;;;13.47;;
5549;SDS011;2798;42.716;23.256;2023-02-18T05:03:35;26.27;;;12.67;;
5549;SDS011;2798;42.716;23.256;2023-02-18T05:06:00;29.93;;;13.17;;
5549;SDS011;2798;42.716;23.256;2023-02-18T05:08:25;31.93;;;13.90;;
5549;SDS011;2798;42.716;23.256;2023-02-18T05:10:50;21.30;;;12.70;;
5549;SDS011;2798;42.716;23.256;2023-02-18T05:13:16;24.73;;;13.13;;
5549;SDS011;2798;42.716;23.256;2023-02-18T05:15:41;30.80;;;14.30;;
5549;SDS011;2798;42.716;23.256;2023-02-18T05:18:07;31.13;;;13.77;;
5549;SDS011;2798;42.716;23.256;2023-02-18T05:20:32;30.33;;;15.07;;
5549;SDS011;2798;42.716;23.256;2023-02-18T05:22:57;22.97;;;13.00;;
5549;SDS011;2798;42.716;23.256;2023-02-18T05:25:23;27.87;;;13.87;;
5549;SDS011;2798;42.716;23.256;2023-02-18T05:27:48;25.73;;;14.33;;
5549;SDS011;2798;42.716;23.256;2023-02-18T05:30:13;27.60;;;13.13;;
5549;SDS011;2798;42.716;23.256;2023-02-18T05:32:39;26.77;;;13.20;;
5549;SDS011;2798;42.716;23.256;2023-02-18T05:35:04;25.23;;;12.90;;
5549;SDS011;2798;42.716;23.256;2023-02-18T05:37:29;23.97;;;12.33;;
5549;SDS011;2798;42.716;23.256;2023-02-18T05:39:55;23.07;;;11.80;;
5549;SDS011;2798;42.716;23.256;2023-02-18T05:42:20;23.47;;;12.70;;
5549;SDS011;2798;42.716;23.256;2023-02-18T05:44:45;22.40;;;13.37;;
5549;SDS011;2798;42.716;23.256;2023-02-18T05:47:11;24.00;;;14.03;;
5549;SDS011;2798;42.716;23.256;2023-02-18T05:49:37;25.00;;;14.47;;
5549;SDS011;2798;42.716;23.256;2023-02-18T05:52:02;25.03;;;13.90;;
5549;SDS011;2798;42.716;23.256;2023-02-18T05:54:28;23.73;;;14.17;;
5549;SDS011;2798;42.716;23.256;2023-02-18T05:56:53;21.30;;;12.77;;
5549;SDS011;2798;42.716;23.256;2023-02-18T05:59:19;20.63;;;12.83;;
5549;SDS011;2798;42.716;23.256;2023-02-18T06:01:44;25.03;;;14.07;;
5549;SDS011;2798;42.716;23.256;2023-02-18T06:04:10;20.40;;;12.10;;
5549;SDS011;2798;42.716;23.256;2023-02-18T06:06:35;25.07;;;13.20;;
5549;SDS011;2798;42.716;23.256;2023-02-18T06:09:01;25.07;;;13.50;;
5549;SDS011;2798;42.716;23.256;2023-02-18T06:11:26;20.43;;;12.27;;
5549;SDS011;2798;42.716;23.256;2023-02-18T06:13:51;24.83;;;13.30;;
5549;SDS011;2798;42.716;23.256;2023-02-18T06:16:17;23.60;;;13.90;;
5549;SDS011;2798;42.716;23.256;2023-02-18T06:18:42;23.47;;;13.40;;
5549;SDS011;2798;42.716;23.256;2023-02-18T06:21:07;22.77;;;12.23;;
5549;SDS011;2798;42.716;23.256;2023-02-18T06:23:32;26.93;;;13.80;;
5549;SDS011;2798;42.716;23.256;2023-02-18T06:25:58;28.60;;;12.20;;
5549;SDS011;2798;42.716;23.256;2023-02-18T06:28:23;22.37;;;13.20;;
5549;SDS011;2798;42.716;23.256;2023-02-18T06:30:48;20.80;;;14.03;;
5549;SDS011;2798;42.716;23.256;2023-02-18T06:33:14;28.80;;;13.60;;
5549;SDS011;2798;42.716;23.256;2023-02-18T06:35:39;28.10;;;13.60;;
5549;SDS011;2798;42.716;23.256;2023-02-18T06:38:04;28.60;;;12.93;;
5549;SDS011;2798;42.716;23.256;2023-02-18T06:40:30;31.23;;;13.77;;
5549;SDS011;2798;42.716;23.256;2023-02-18T06:42:55;24.03;;;12.53;;
5549;SDS011;2798;42.716;23.256;2023-02-18T06:45:20;27.00;;;13.00;;
5549;SDS011;2798;42.716;23.256;2023-02-18T06:47:45;21.30;;;12.67;;
5549;SDS011;2798;42.716;23.256;2023-02-18T06:50:11;24.87;;;13.23;;
5549;SDS011;2798;42.716;23.256;2023-02-18T06:52:36;21.00;;;12.93;;
5549;SDS011;2798;42.716;23.256;2023-02-18T06:55:05;32.63;;;16.87;;
5549;SDS011;2798;42.716;23.256;2023-02-18T06:57:30;44.70;;;22.70;;
5549;SDS011;2798;42.716;23.256;2023-02-18T06:59:55;53.83;;;23.30;;
5549;SDS011;2798;42.716;23.256;2023-02-18T07:02:21;40.97;;;20.63;;
5549;SDS011;2798;42.716;23.256;2023-02-18T07:04:46;42.30;;;21.00;;
5549;SDS011;2798;42.716;23.256;2023-02-18T07:07:11;40.30;;;19.20;;
5549;SDS011;2798;42.716;23.256;2023-02-18T07:09:36;35.03;;;16.50;;
5549;SDS011;2798;42.716;23.256;2023-02-18T07:12:02;32.20;;;15.93;;
5549;SDS011;2798;42.716;23.256;2023-02-18T07:14:27;27.87;;;15.83;;
5549;SDS011;2798;42.716;23.256;2023-02-18T07:16:53;28.80;;;13.90;;
5549;SDS011;2798;42.716;23.256;2023-02-18T07:19:18;27.37;;;14.27;;
5549;SDS011;2798;42.716;23.256;2023-02-18T07:21:43;27.67;;;14.50;;
5549;SDS011;2798;42.716;23.256;2023-02-18T07:24:08;32.70;;;15.63;;
5549;SDS011;2798;42.716;23.256;2023-02-18T07:26:34;28.07;;;15.63;;
5549;SDS011;2798;42.716;23.256;2023-02-18T07:28:59;32.63;;;17.20;;
5549;SDS011;2798;42.716;23.256;2023-02-18T07:31:24;30.20;;;16.90;;
5549;SDS011;2798;42.716;23.256;2023-02-18T07:33:50;27.97;;;15.47;;
5549;SDS011;2798;42.716;23.256;2023-02-18T07:36:15;27.07;;;15.77;;
5549;SDS011;2798;42.716;23.256;2023-02-18T07:38:40;26.77;;;14.63;;
5549;SDS011;2798;42.716;23.256;2023-02-18T07:41:05;33.30;;;14.97;;
5549;SDS011;2798;42.716;23.256;2023-02-18T07:43:31;31.63;;;13.73;;
5549;SDS011;2798;42.716;23.256;2023-02-18T07:45:56;30.27;;;16.03;;
5549;SDS011;2798;42.716;23.256;2023-02-18T07:48:21;33.37;;;15.93;;
5549;SDS011;2798;42.716;23.256;2023-02-18T07:50:47;34.97;;;16.40;;
5549;SDS011;2798;42.716;23.256;2023-02-18T07:53:13;35.17;;;16.50;;
5549;SDS011;2798;42.716;23.256;2023-02-18T07:55:39;35.03;;;16.93;;
5549;SDS011;2798;42.716;23.256;2023-02-18T07:58:13;42.27;;;17.87;;
5549;SDS011;2798;42.716;23.256;2023-02-18T08:00:39;37.10;;;18.17;;
5549;SDS011;2798;42.716;23.256;2023-02-18T08:03:04;31.20;;;17.23;;
5549;SDS011;2798;42.716;23.256;2023-02-18T08:05:29;28.83;;;15.30;;
5549;SDS011;2798;42.716;23.256;2023-02-18T08:07:55;29.27;;;14.80;;
5549;SDS011;2798;42.716;23.256;2023-02-18T08:10:20;24.90;;;14.23;;
5549;SDS011;2798;42.716;23.256;2023-02-18T08:12:45;27.40;;;12.90;;
5549;SDS011;2798;42.716;23.256;2023-02-18T08:15:10;27.17;;;14.20;;
5549;SDS011;2798;42.716;23.256;2023-02-18T08:17:36;22.00;;;13.83;;
5549;SDS011;2798;42.716;23.256;2023-02-18T08:20:01;23.03;;;11.37;;
5549;SDS011;2798;42.716;23.256;2023-02-18T08:22:26;18.77;;;10.57;;
5549;SDS011;2798;42.716;23.256;2023-02-18T08:24:55;22.83;;;11.27;;
5549;SDS011;2798;42.716;23.256;2023-02-18T08:27:20;30.50;;;13.67;;
5549;SDS011;2798;42.716;23.256;2023-02-18T08:29:46;26.70;;;13.67;;
5549;SDS011;2798;42.716;23.256;2023-02-18T08:32:11;36.53;;;14.87;;
5549;SDS011;2798;42.716;23.256;2023-02-18T08:34:37;28.63;;;14.30;;
5549;SDS011;2798;42.716;23.256;2023-02-18T08:37:02;27.87;;;13.87;;
5549;SDS011;2798;42.716;23.256;2023-02-18T08:39:28;29.00;;;14.20;;
5549;SDS011;2798;42.716;23.256;2023-02-18T08:41:57;33.43;;;15.20;;
5549;SDS011;2798;42.716;23.256;2023-02-18T08:44:22;29.07;;;14.80;;
5549;SDS011;2798;42.716;23.256;2023-02-18T08:46:48;32.73;;;14.07;;
5549;SDS011;2798;42.716;23.256;2023-02-18T08:49:13;30.57;;;14.40;;
5549;SDS011;2798;42.716;23.256;2023-02-18T08:51:38;21.00;;;11.60;;
5549;SDS011;2798;42.716;23.256;2023-02-18T08:54:03;16.43;;;8.50;;
5549;SDS011;2798;42.716;23.256;2023-02-18T08:56:29;22.37;;;8.23;;
5549;SDS011;2798;42.716;23.256;2023-02-18T08:58:55;11.53;;;6.10;;
5549;SDS011;2798;42.716;23.256;2023-02-18T09:01:20;8.53;;;5.50;;
5549;SDS011;2798;42.716;23.256;2023-02-18T09:03:46;13.40;;;6.13;;
5549;SDS011;2798;42.716;23.256;2023-02-18T09:06:12;12.73;;;5.80;;
5549;SDS011;2798;42.716;23.256;2023-02-18T09:08:37;10.00;;;6.30;;
5549;SDS011;2798;42.716;23.256;2023-02-18T09:11:03;10.77;;;5.83;;
5549;SDS011;2798;42.716;23.256;2023-02-18T09:13:28;9.70;;;6.30;;
5549;SDS011;2798;42.716;23.256;2023-02-18T09:15:58;14.20;;;6.23;;
5549;SDS011;2798;42.716;23.256;2023-02-18T09:18:23;16.97;;;6.23;;
5549;SDS011;2798;42.716;23.256;2023-02-18T09:20:49;17.20;;;6.20;;
5549;SDS011;2798;42.716;23.256;2023-02-18T09:23:14;11.40;;;5.80;;
5549;SDS011;2798;42.716;23.256;2023-02-18T09:25:40;9.77;;;6.20;;
5549;SDS011;2798;42.716;23.256;2023-02-18T09:28:05;10.67;;;6.27;;
5549;SDS011;2798;42.716;23.256;2023-02-18T09:30:31;11.77;;;6.27;;
5549;SDS011;2798;42.716;23.256;2023-02-18T09:32:56;13.80;;;6.50;;
5549;SDS011;2798;42.716;23.256;2023-02-18T09:35:21;11.40;;;6.60;;
5549;SDS011;2798;42.716;23.256;2023-02-18T09:37:47;11.80;;;6.20;;
5549;SDS011;2798;42.716;23.256;2023-02-18T09:40:20;7.77;;;5.17;;
5549;SDS011;2798;42.716;23.256;2023-02-18T09:42:46;9.27;;;5.80;;
5549;SDS011;2798;42.716;23.256;2023-02-18T09:45:11;10.73;;;6.10;;
5549;SDS011;2798;42.716;23.256;2023-02-18T09:47:41;15.37;;;7.93;;
5549;SDS011;2798;42.716;23.256;2023-02-18T09:52:33;15.83;;;7.20;;
5549;SDS011;2798;42.716;23.256;2023-02-18T09:55:23;15.97;;;7.30;;
5549;SDS011;2798;42.716;23.256;2023-02-18T09:57:51;9.27;;;5.57;;
5549;SDS011;2798;42.716;23.256;2023-02-18T10:00:21;9.77;;;5.93;;
5549;SDS011;2798;42.716;23.256;2023-02-18T10:02:54;10.53;;;5.70;;
5549;SDS011;2798;42.716;23.256;2023-02-18T10:05:21;10.60;;;4.60;;
5549;SDS011;2798;42.716;23.256;2023-02-18T10:07:47;11.97;;;5.00;;
5549;SDS011;2798;42.716;23.256;2023-02-18T10:12:57;3.57;;;3.00;;
5549;SDS011;2798;42.716;23.256;2023-02-18T10:15:23;6.70;;;2.83;;
5549;SDS011;2798;42.716;23.256;2023-02-18T10:17:51;4.67;;;3.07;;
5549;SDS011;2798;42.716;23.256;2023-02-18T10:20:20;5.93;;;2.73;;
5549;SDS011;2798;42.716;23.256;2023-02-18T10:22:47;10.73;;;3.10;;
5549;SDS011;2798;42.716;23.256;2023-02-18T10:25:17;8.50;;;3.10;;
5549;SDS011;2798;42.716;23.256;2023-02-18T10:27:43;6.27;;;4.00;;
5549;SDS011;2798;42.716;23.256;2023-02-18T10:32:46;4.67;;;3.60;;
5549;SDS011;2798;42.716;23.256;2023-02-18T10:35:30;6.37;;;3.67;;
5549;SDS011;2798;42.716;23.256;2023-02-18T10:45:37;4.77;;;3.40;;
5549;SDS011;2798;42.716;23.256;2023-02-18T10:48:10;6.93;;;3.87;;
5549;SDS011;2798;42.716;23.256;2023-02-18T10:50:38;6.50;;;3.80;;
5549;SDS011;2798;42.716;23.256;2023-02-18T10:53:09;7.53;;;3.07;;
5549;SDS011;2798;42.716;23.256;2023-02-18T10:55:38;8.20;;;3.53;;
5549;SDS011;2798;42.716;23.256;2023-02-18T10:58:22;10.93;;;3.40;;
5549;SDS011;2798;42.716;23.256;2023-02-18T11:00:48;8.17;;;3.17;;
5549;SDS011;2798;42.716;23.256;2023-02-18T11:03:18;6.33;;;3.33;;
5549;SDS011;2798;42.716;23.256;2023-02-18T11:05:44;5.53;;;3.20;;
5549;SDS011;2798;42.716;23.256;2023-02-18T11:08:13;5.10;;;3.40;;
5549;SDS011;2798;42.716;23.256;2023-02-18T11:10:41;5.30;;;3.50;;
5549;SDS011;2798;42.716;23.256;2023-02-18T11:13:08;4.77;;;3.10;;
5549;SDS011;2798;42.716;23.256;2023-02-18T11:15:34;5.40;;;3.40;;
5549;SDS011;2798;42.716;23.256;2023-02-18T11:20:43;6.77;;;3.73;;
5549;SDS011;2798;42.716;23.256;2023-02-18T11:23:19;6.60;;;4.00;;
5549;SDS011;2798;42.716;23.256;2023-02-18T11:25:52;6.07;;;3.83;;
5549;SDS011;2798;42.716;23.256;2023-02-18T11:30:44;4.80;;;3.73;;
5549;SDS011;2798;42.716;23.256;2023-02-18T11:33:17;5.07;;;3.40;;
5549;SDS011;2798;42.716;23.256;2023-02-18T11:35:53;6.93;;;3.73;;
5549;SDS011;2798;42.716;23.256;2023-02-18T11:38:25;6.43;;;3.70;;
5549;SDS011;2798;42.716;23.256;2023-02-18T11:41:05;6.30;;;3.70;;
5549;SDS011;2798;42.716;23.256;2023-02-18T11:43:31;5.27;;;3.90;;
5549;SDS011;2798;42.716;23.256;2023-02-18T11:46:08;8.70;;;4.17;;
5549;SDS011;2798;42.716;23.256;2023-02-18T11:48:33;5.60;;;3.90;;
5549;SDS011;2798;42.716;23.256;2023-02-18T11:51:00;9.30;;;3.57;;
5549;SDS011;2798;42.716;23.256;2023-02-18T11:53:33;10.63;;;3.97;;
5549;SDS011;2798;42.716;23.256;2023-02-18T11:56:00;7.67;;;3.50;;
5549;SDS011;2798;42.716;23.256;2023-02-18T11:58:26;4.30;;;3.77;;
5549;SDS011;2798;42.716;23.256;2023-02-18T12:00:55;5.80;;;3.60;;
5549;SDS011;2798;42.716;23.256;2023-02-18T12:03:32;5.07;;;3.03;;
5549;SDS011;2798;42.716;23.256;2023-02-18T12:06:03;6.17;;;4.03;;
5549;SDS011;2798;42.716;23.256;2023-02-18T12:08:34;9.53;;;3.30;;
5549;SDS011;2798;42.716;23.256;2023-02-18T12:11:04;7.30;;;4.03;;
5549;SDS011;2798;42.716;23.256;2023-02-18T12:13:32;5.50;;;3.93;;
5549;SDS011;2798;42.716;23.256;2023-02-18T12:21:19;5.10;;;3.90;;
5549;SDS011;2798;42.716;23.256;2023-02-18T12:36:53;5.70;;;3.10;;
5549;SDS011;2798;42.716;23.256;2023-02-18T12:44:33;7.60;;;3.47;;
5549;SDS011;2798;42.716;23.256;2023-02-18T12:52:08;6.83;;;3.50;;
5549;SDS011;2798;42.716;23.256;2023-02-18T13:00:08;6.33;;;3.50;;
5549;SDS011;2798;42.716;23.256;2023-02-18T13:05:23;7.13;;;3.50;;
5549;SDS011;2798;42.716;23.256;2023-02-18T13:17:43;4.47;;;3.23;;
5549;SDS011;2798;42.716;23.256;2023-02-18T13:20:13;5.37;;;3.50;;
5549;SDS011;2798;42.716;23.256;2023-02-18T13:22:41;14.50;;;4.20;;
5549;SDS011;2798;42.716;23.256;2023-02-18T13:25:10;6.30;;;3.40;;
5549;SDS011;2798;42.716;23.256;2023-02-18T13:27:43;6.00;;;3.37;;
5549;SDS011;2798;42.716;23.256;2023-02-18T13:35:59;8.40;;;3.23;;
5549;SDS011;2798;42.716;23.256;2023-02-18T13:38:25;4.20;;;3.20;;
5549;SDS011;2798;42.716;23.256;2023-02-18T13:40:55;7.13;;;3.43;;
5549;SDS011;2798;42.716;23.256;2023-02-18T13:43:32;4.53;;;3.40;;
5549;SDS011;2798;42.716;23.256;2023-02-18T13:46:07;5.20;;;3.40;;
5549;SDS011;2798;42.716;23.256;2023-02-18T13:51:05;6.90;;;3.63;;
5549;SDS011;2798;42.716;23.256;2023-02-18T13:53:31;5.17;;;3.50;;
5549;SDS011;2798;42.716;23.256;2023-02-18T13:56:09;7.20;;;3.60;;
5549;SDS011;2798;42.716;23.256;2023-02-18T14:06:31;8.00;;;3.33;;
5549;SDS011;2798;42.716;23.256;2023-02-18T14:11:38;9.80;;;3.47;;
5549;SDS011;2798;42.716;23.256;2023-02-18T14:19:31;6.33;;;3.60;;
5549;SDS011;2798;42.716;23.256;2023-02-18T14:22:22;7.60;;;3.50;;
5549;SDS011;2798;42.716;23.256;2023-02-18T14:24:43;10.60;;;4.43;;
5549;SDS011;2798;42.716;23.256;2023-02-18T14:27:13;6.87;;;4.50;;
5549;SDS011;2798;42.716;23.256;2023-02-18T14:29:39;9.30;;;3.33;;
5549;SDS011;2798;42.716;23.256;2023-02-18T14:32:08;8.57;;;4.20;;
5549;SDS011;2798;42.716;23.256;2023-02-18T14:34:41;5.07;;;3.90;;
5549;SDS011;2798;42.716;23.256;2023-02-18T14:47:45;6.13;;;3.63;;
5549;SDS011;2798;42.716;23.256;2023-02-18T14:50:19;6.47;;;3.83;;
5549;SDS011;2798;42.716;23.256;2023-02-18T14:52:58;5.77;;;3.83;;
5549;SDS011;2798;42.716;23.256;2023-02-18T14:55:33;7.23;;;3.57;;
5549;SDS011;2798;42.716;23.256;2023-02-18T14:58:00;5.30;;;3.53;;
5549;SDS011;2798;42.716;23.256;2023-02-18T15:00:28;4.43;;;3.57;;
5549;SDS011;2798;42.716;23.256;2023-02-18T15:02:56;5.53;;;3.57;;
5549;SDS011;2798;42.716;23.256;2023-02-18T15:05:23;10.43;;;4.50;;
5549;SDS011;2798;42.716;23.256;2023-02-18T15:08:02;4.60;;;4.10;;
5549;SDS011;2798;42.716;23.256;2023-02-18T15:12:56;6.37;;;4.33;;
5549;SDS011;2798;42.716;23.256;2023-02-18T15:15:21;8.03;;;4.40;;
5549;SDS011;2798;42.716;23.256;2023-02-18T15:17:46;5.73;;;4.10;;
5549;SDS011;2798;42.716;23.256;2023-02-18T15:20:13;6.63;;;4.70;;
5549;SDS011;2798;42.716;23.256;2023-02-18T15:22:39;7.50;;;3.40;;
5549;SDS011;2798;42.716;23.256;2023-02-18T15:25:04;9.83;;;4.60;;
5549;SDS011;2798;42.716;23.256;2023-02-18T15:27:31;8.23;;;4.13;;
5549;SDS011;2798;42.716;23.256;2023-02-18T15:29:58;7.27;;;3.80;;
5549;SDS011;2798;42.716;23.256;2023-02-18T15:32:27;10.53;;;4.50;;
5549;SDS011;2798;42.716;23.256;2023-02-18T15:34:53;9.60;;;4.60;;
5549;SDS011;2798;42.716;23.256;2023-02-18T15:37:20;11.43;;;4.60;;
5549;SDS011;2798;42.716;23.256;2023-02-18T15:39:45;10.43;;;5.23;;
5549;SDS011;2798;42.716;23.256;2023-02-18T15:42:30;6.90;;;4.43;;
5549;SDS011;2798;42.716;23.256;2023-02-18T15:44:57;17.40;;;5.50;;
5549;SDS011;2798;42.716;23.256;2023-02-18T15:47:23;8.40;;;5.30;;
5549;SDS011;2798;42.716;23.256;2023-02-18T15:49:52;15.60;;;6.10;;
5549;SDS011;2798;42.716;23.256;2023-02-18T15:52:25;12.83;;;5.67;;
5549;SDS011;2798;42.716;23.256;2023-02-18T15:54:51;11.73;;;5.70;;
5549;SDS011;2798;42.716;23.256;2023-02-18T15:57:17;11.77;;;5.80;;
5549;SDS011;2798;42.716;23.256;2023-02-18T15:59:52;13.70;;;5.93;;
5549;SDS011;2798;42.716;23.256;2023-02-18T16:02:21;8.20;;;6.40;;
5549;SDS011;2798;42.716;23.256;2023-02-18T16:04:57;10.50;;;6.50;;
5549;SDS011;2798;42.716;23.256;2023-02-18T16:07:25;10.60;;;7.03;;
5549;SDS011;2798;42.716;23.256;2023-02-18T16:09:56;13.60;;;6.70;;
5549;SDS011;2798;42.716;23.256;2023-02-18T16:12:28;14.50;;;7.00;;
5549;SDS011;2798;42.716;23.256;2023-02-18T16:14:55;10.90;;;5.23;;
5549;SDS011;2798;42.716;23.256;2023-02-18T16:17:22;7.97;;;5.10;;
5549;SDS011;2798;42.716;23.256;2023-02-18T16:25:06;10.10;;;6.80;;
5549;SDS011;2798;42.716;23.256;2023-02-18T16:27:33;10.80;;;6.83;;
5549;SDS011;2798;42.716;23.256;2023-02-18T16:30:33;15.13;;;7.30;;
5549;SDS011;2798;42.716;23.256;2023-02-18T16:32:51;16.60;;;7.70;;
5549;SDS011;2798;42.716;23.256;2023-02-18T16:35:16;13.40;;;7.67;;
5549;SDS011;2798;42.716;23.256;2023-02-18T16:37:42;11.30;;;7.50;;
5549;SDS011;2798;42.716;23.256;2023-02-18T16:40:31;10.27;;;7.57;;
5549;SDS011;2798;42.716;23.256;2023-02-18T16:42:55;14.77;;;6.77;;
5549;SDS011;2798;42.716;23.256;2023-02-18T16:45:23;11.63;;;6.10;;
5549;SDS011;2798;42.716;23.256;2023-02-18T16:47:50;10.30;;;5.90;;
5549;SDS011;2798;42.716;23.256;2023-02-18T16:50:17;12.90;;;6.57;;
5549;SDS011;2798;42.716;23.256;2023-02-18T16:52:43;10.00;;;6.00;;
5549;SDS011;2798;42.716;23.256;2023-02-18T16:55:18;10.80;;;6.83;;
5549;SDS011;2798;42.716;23.256;2023-02-18T16:57:44;11.43;;;6.80;;
5549;SDS011;2798;42.716;23.256;2023-02-18T17:00:10;11.67;;;6.27;;
5549;SDS011;2798;42.716;23.256;2023-02-18T17:02:35;14.57;;;7.13;;
5549;SDS011;2798;42.716;23.256;2023-02-18T17:05:00;10.83;;;6.23;;
5549;SDS011;2798;42.716;23.256;2023-02-18T17:07:26;16.47;;;6.03;;
5549;SDS011;2798;42.716;23.256;2023-02-18T17:09:51;8.57;;;5.20;;
5549;SDS011;2798;42.716;23.256;2023-02-18T17:12:16;11.43;;;4.57;;
5549;SDS011;2798;42.716;23.256;2023-02-18T17:14:42;11.20;;;5.43;;
5549;SDS011;2798;42.716;23.256;2023-02-18T17:17:10;9.37;;;5.50;;
5549;SDS011;2798;42.716;23.256;2023-02-18T17:19:37;7.97;;;5.20;;
5549;SDS011;2798;42.716;23.256;2023-02-18T17:22:03;8.23;;;4.90;;